sensor_id;sensor_type;location;lat;lon;timestamp;pressure;altitude;pressure_sealevel;temperature;humidity
49463;BME280;35357;51.722;0.500;2022-07-29T00:01:43;101627.21;;;17.22;59.87
49463;BME280;35357;51.722;0.500;2022-07-29T00:04:11;101625.79;;;17.35;59.03
49463;BME280;35357;51.722;0.500;2022-07-29T00:06:39;101623.32;;;17.47;59.42
49463;BME280;35357;51.722;0.500;2022-07-29T00:09:06;101619.03;;;17.37;59.43
49463;BME280;35357;51.722;0.500;2022-07-29T00:11:33;101619.80;;;17.34;58.93
49463;BME280;35357;51.722;0.500;2022-07-29T00:14:00;101615.81;;;17.18;60.31
49463;BME280;35357;51.722;0.500;2022-07-29T00:16:28;101619.31;;;17.47;59.31
49463;BME280;35357;51.722;0.500;2022-07-29T00:18:55;101617.70;;;16.97;59.75
49463;BME280;35357;51.722;0.500;2022-07-29T00:21:23;101613.09;;;16.79;60.53
49463;BME280;35357;51.722;0.500;2022-07-29T00:23:50;101608.72;;;17.32;59.70
49463;BME280;35357;51.722;0.500;2022-07-29T00:26:17;101608.44;;;17.41;58.74
49463;BME280;35357;51.722;0.500;2022-07-29T00:28:44;101605.30;;;17.00;60.24
49463;BME280;35357;51.722;0.500;2022-07-29T00:31:12;101604.38;;;16.85;60.43
49463;BME280;35357;51.722;0.500;2022-07-29T00:33:39;101601.38;;;16.97;60.15
49463;BME280;35357;51.722;0.500;2022-07-29T00:36:06;101602.32;;;16.98;59.79
49463;BME280;35357;51.722;0.500;2022-07-29T00:38:33;101603.87;;;17.18;60.33
49463;BME280;35357;51.722;0.500;2022-07-29T00:41:01;101600.81;;;16.67;61.16
49463;BME280;35357;51.722;0.500;2022-07-29T00:43:28;101603.55;;;17.11;60.48
49463;BME280;35357;51.722;0.500;2022-07-29T00:45:55;101602.57;;;17.32;60.70
49463;BME280;35357;51.722;0.500;2022-07-29T00:48:22;101599.71;;;17.18;61.30
49463;BME280;35357;51.722;0.500;2022-07-29T00:50:50;101602.72;;;17.31;60.61
49463;BME280;35357;51.722;0.500;2022-07-29T00:53:18;101600.88;;;17.43;60.23
49463;BME280;35357;51.722;0.500;2022-07-29T00:55:46;101601.40;;;17.31;60.68
49463;BME280;35357;51.722;0.500;2022-07-29T00:58:13;101598.77;;;17.31;60.63
49463;BME280;35357;51.722;0.500;2022-07-29T01:00:41;101596.89;;;16.91;60.30
49463;BME280;35357;51.722;0.500;2022-07-29T01:03:09;101593.79;;;16.69;60.91
49463;BME280;35357;51.722;0.500;2022-07-29T01:05:36;101593.89;;;16.72;60.82
49463;BME280;35357;51.722;0.500;2022-07-29T01:08:05;101590.36;;;16.88;61.75
49463;BME280;35357;51.722;0.500;2022-07-29T01:10:33;101589.40;;;16.63;61.93
49463;BME280;35357;51.722;0.500;2022-07-29T01:13:04;101586.78;;;16.97;61.60
49463;BME280;35357;51.722;0.500;2022-07-29T01:15:32;101583.50;;;16.78;61.47
49463;BME280;35357;51.722;0.500;2022-07-29T01:18:07;101581.58;;;16.82;61.03
49463;BME280;35357;51.722;0.500;2022-07-29T01:20:55;101579.73;;;16.72;62.48
49463;BME280;35357;51.722;0.500;2022-07-29T01:23:42;101579.61;;;16.61;62.11
49463;BME280;35357;51.722;0.500;2022-07-29T01:26:39;101580.54;;;17.16;61.40
49463;BME280;35357;51.722;0.500;2022-07-29T01:29:15;101581.06;;;16.85;61.15
49463;BME280;35357;51.722;0.500;2022-07-29T01:31:51;101585.88;;;16.86;61.27
49463;BME280;35357;51.722;0.500;2022-07-29T01:34:23;101582.84;;;16.90;62.15
49463;BME280;35357;51.722;0.500;2022-07-29T01:36:57;101581.81;;;16.69;61.79
49463;BME280;35357;51.722;0.500;2022-07-29T01:39:31;101579.65;;;16.92;62.08
49463;BME280;35357;51.722;0.500;2022-07-29T01:42:08;101587.28;;;16.03;65.20
49463;BME280;35357;51.722;0.500;2022-07-29T01:44:41;101581.28;;;16.56;63.07
49463;BME280;35357;51.722;0.500;2022-07-29T01:47:17;101581.30;;;16.89;62.85
49463;BME280;35357;51.722;0.500;2022-07-29T01:49:50;101579.04;;;16.60;61.93
49463;BME280;35357;51.722;0.500;2022-07-29T01:52:23;101576.79;;;16.92;61.97
49463;BME280;35357;51.722;0.500;2022-07-29T01:54:56;101579.66;;;16.97;61.78
49463;BME280;35357;51.722;0.500;2022-07-29T01:57:28;101577.50;;;16.99;60.95
49463;BME280;35357;51.722;0.500;2022-07-29T01:59:58;101574.16;;;17.42;60.65
49463;BME280;35357;51.722;0.500;2022-07-29T02:02:27;101573.01;;;17.63;60.02
49463;BME280;35357;51.722;0.500;2022-07-29T02:04:56;101572.04;;;17.17;60.51
49463;BME280;35357;51.722;0.500;2022-07-29T02:07:25;101572.40;;;17.14;60.55
49463;BME280;35357;51.722;0.500;2022-07-29T02:09:54;101573.59;;;17.52;60.57
49463;BME280;35357;51.722;0.500;2022-07-29T02:12:26;101574.68;;;17.37;60.11
49463;BME280;35357;51.722;0.500;2022-07-29T02:15:00;101576.31;;;17.85;60.30
49463;BME280;35357;51.722;0.500;2022-07-29T02:17:32;101574.50;;;17.58;59.90
49463;BME280;35357;51.722;0.500;2022-07-29T02:20:03;101569.30;;;17.55;60.01
49463;BME280;35357;51.722;0.500;2022-07-29T02:22:33;101570.51;;;17.54;60.13
49463;BME280;35357;51.722;0.500;2022-07-29T02:25:03;101570.53;;;17.53;60.23
49463;BME280;35357;51.722;0.500;2022-07-29T02:27:34;101570.97;;;17.59;59.55
49463;BME280;35357;51.722;0.500;2022-07-29T02:30:04;101571.82;;;17.59;60.28
49463;BME280;35357;51.722;0.500;2022-07-29T02:32:35;101574.39;;;17.79;59.80
49463;BME280;35357;51.722;0.500;2022-07-29T02:35:03;101576.50;;;17.87;59.52
49463;BME280;35357;51.722;0.500;2022-07-29T02:37:31;101574.84;;;17.94;59.45
49463;BME280;35357;51.722;0.500;2022-07-29T02:39:59;101572.22;;;18.05;59.09
49463;BME280;35357;51.722;0.500;2022-07-29T02:42:27;101573.65;;;17.61;60.07
49463;BME280;35357;51.722;0.500;2022-07-29T02:44:56;101577.54;;;17.92;59.74
49463;BME280;35357;51.722;0.500;2022-07-29T02:47:27;101579.66;;;18.05;59.45
49463;BME280;35357;51.722;0.500;2022-07-29T02:50:02;101577.48;;;17.76;59.73
49463;BME280;35357;51.722;0.500;2022-07-29T02:52:35;101578.64;;;18.05;58.83
49463;BME280;35357;51.722;0.500;2022-07-29T02:55:12;101581.73;;;18.13;58.70
49463;BME280;35357;51.722;0.500;2022-07-29T02:57:44;101582.13;;;17.96;59.64
49463;BME280;35357;51.722;0.500;2022-07-29T03:00:14;101579.08;;;18.13;59.83
49463;BME280;35357;51.722;0.500;2022-07-29T03:02:45;101580.40;;;17.92;60.46
49463;BME280;35357;51.722;0.500;2022-07-29T03:05:16;101578.74;;;18.07;60.27
49463;BME280;35357;51.722;0.500;2022-07-29T03:07:48;101579.88;;;17.82;60.45
49463;BME280;35357;51.722;0.500;2022-07-29T03:10:16;101578.95;;;17.96;61.03
49463;BME280;35357;51.722;0.500;2022-07-29T03:12:44;101581.35;;;18.03;61.13
49463;BME280;35357;51.722;0.500;2022-07-29T03:15:11;101582.26;;;17.99;61.41
49463;BME280;35357;51.722;0.500;2022-07-29T03:17:40;101576.44;;;18.07;61.37
49463;BME280;35357;51.722;0.500;2022-07-29T03:20:08;101575.91;;;18.12;61.46
49463;BME280;35357;51.722;0.500;2022-07-29T03:22:39;101572.35;;;18.13;61.55
49463;BME280;35357;51.722;0.500;2022-07-29T03:25:08;101572.86;;;18.07;61.80
49463;BME280;35357;51.722;0.500;2022-07-29T03:27:36;101572.00;;;18.43;60.67
49463;BME280;35357;51.722;0.500;2022-07-29T03:30:05;101570.16;;;18.11;60.93
49463;BME280;35357;51.722;0.500;2022-07-29T03:32:32;101567.27;;;18.54;60.50
49463;BME280;35357;51.722;0.500;2022-07-29T03:35:00;101569.82;;;18.32;60.59
49463;BME280;35357;51.722;0.500;2022-07-29T03:37:28;101570.34;;;18.11;61.37
49463;BME280;35357;51.722;0.500;2022-07-29T03:39:56;101574.14;;;18.05;61.50
49463;BME280;35357;51.722;0.500;2022-07-29T03:42:25;101575.34;;;18.54;60.86
49463;BME280;35357;51.722;0.500;2022-07-29T03:44:54;101578.17;;;18.50;61.16
49463;BME280;35357;51.722;0.500;2022-07-29T03:47:26;101577.81;;;18.20;61.34
49463;BME280;35357;51.722;0.500;2022-07-29T03:49:59;101580.95;;;18.42;60.68
49463;BME280;35357;51.722;0.500;2022-07-29T03:52:26;101580.36;;;18.29;61.56
49463;BME280;35357;51.722;0.500;2022-07-29T03:54:54;101587.16;;;18.55;60.60
49463;BME280;35357;51.722;0.500;2022-07-29T03:57:24;101586.90;;;18.72;60.53
49463;BME280;35357;51.722;0.500;2022-07-29T03:59:52;101583.67;;;18.43;60.77
49463;BME280;35357;51.722;0.500;2022-07-29T04:02:21;101585.74;;;18.56;61.33
49463;BME280;35357;51.722;0.500;2022-07-29T04:04:49;101583.88;;;18.43;60.53
49463;BME280;35357;51.722;0.500;2022-07-29T04:07:16;101587.29;;;18.64;60.71
49463;BME280;35357;51.722;0.500;2022-07-29T04:09:42;101587.76;;;18.36;61.01
49463;BME280;35357;51.722;0.500;2022-07-29T04:12:10;101589.42;;;18.37;61.22
49463;BME280;35357;51.722;0.500;2022-07-29T04:14:37;101586.42;;;18.89;61.09
49463;BME280;35357;51.722;0.500;2022-07-29T04:17:05;101586.98;;;18.52;60.75
49463;BME280;35357;51.722;0.500;2022-07-29T04:19:32;101584.91;;;18.82;60.64
49463;BME280;35357;51.722;0.500;2022-07-29T04:22:01;101582.21;;;18.91;60.49
49463;BME280;35357;51.722;0.500;2022-07-29T04:24:28;101581.07;;;18.79;61.02
49463;BME280;35357;51.722;0.500;2022-07-29T04:26:56;101581.15;;;18.63;61.46
49463;BME280;35357;51.722;0.500;2022-07-29T04:29:22;101585.76;;;18.93;61.27
49463;BME280;35357;51.722;0.500;2022-07-29T04:31:49;101586.92;;;18.64;62.21
49463;BME280;35357;51.722;0.500;2022-07-29T04:34:17;101590.82;;;18.36;62.29
49463;BME280;35357;51.722;0.500;2022-07-29T04:36:45;101592.89;;;18.74;61.92
49463;BME280;35357;51.722;0.500;2022-07-29T04:39:12;101592.25;;;18.44;62.02
49463;BME280;35357;51.722;0.500;2022-07-29T04:41:40;101589.86;;;18.59;62.50
49463;BME280;35357;51.722;0.500;2022-07-29T04:44:07;101588.01;;;18.50;61.91
49463;BME280;35357;51.722;0.500;2022-07-29T04:46:34;101586.60;;;18.57;61.95
49463;BME280;35357;51.722;0.500;2022-07-29T04:49:02;101587.98;;;18.60;61.97
49463;BME280;35357;51.722;0.500;2022-07-29T04:51:29;101591.71;;;18.73;61.69
49463;BME280;35357;51.722;0.500;2022-07-29T04:53:57;101588.09;;;18.60;62.35
49463;BME280;35357;51.722;0.500;2022-07-29T04:56:24;101587.55;;;18.75;62.12
49463;BME280;35357;51.722;0.500;2022-07-29T04:58:52;101588.61;;;18.67;63.50
49463;BME280;35357;51.722;0.500;2022-07-29T05:01:20;101589.59;;;18.34;64.79
49463;BME280;35357;51.722;0.500;2022-07-29T05:03:48;101591.10;;;18.03;65.81
49463;BME280;35357;51.722;0.500;2022-07-29T05:06:15;101594.14;;;18.30;66.03
49463;BME280;35357;51.722;0.500;2022-07-29T05:08:42;101596.71;;;18.36;66.15
49463;BME280;35357;51.722;0.500;2022-07-29T05:11:09;101603.01;;;18.37;65.45
49463;BME280;35357;51.722;0.500;2022-07-29T05:13:37;101611.66;;;18.72;65.28
49463;BME280;35357;51.722;0.500;2022-07-29T05:16:05;101612.53;;;18.46;65.64
49463;BME280;35357;51.722;0.500;2022-07-29T05:18:32;101612.40;;;18.58;66.03
49463;BME280;35357;51.722;0.500;2022-07-29T05:21:00;101604.81;;;18.61;65.53
49463;BME280;35357;51.722;0.500;2022-07-29T05:23:27;101602.48;;;18.50;64.88
49463;BME280;35357;51.722;0.500;2022-07-29T05:25:55;101600.44;;;18.57;65.39
49463;BME280;35357;51.722;0.500;2022-07-29T05:28:23;101603.90;;;18.74;64.96
49463;BME280;35357;51.722;0.500;2022-07-29T05:30:50;101606.38;;;18.38;65.27
49463;BME280;35357;51.722;0.500;2022-07-29T05:33:18;101608.60;;;18.36;66.05
49463;BME280;35357;51.722;0.500;2022-07-29T05:35:45;101609.74;;;18.39;65.22
49463;BME280;35357;51.722;0.500;2022-07-29T05:38:12;101611.11;;;18.43;65.13
49463;BME280;35357;51.722;0.500;2022-07-29T05:40:40;101617.05;;;18.37;66.00
49463;BME280;35357;51.722;0.500;2022-07-29T05:43:07;101619.37;;;18.30;66.06
49463;BME280;35357;51.722;0.500;2022-07-29T05:45:35;101617.86;;;18.34;66.25
49463;BME280;35357;51.722;0.500;2022-07-29T05:48:02;101615.80;;;18.06;66.16
49463;BME280;35357;51.722;0.500;2022-07-29T05:50:29;101614.10;;;18.31;66.54
49463;BME280;35357;51.722;0.500;2022-07-29T05:52:57;101610.96;;;18.42;66.28
49463;BME280;35357;51.722;0.500;2022-07-29T05:55:24;101603.87;;;18.58;67.02
49463;BME280;35357;51.722;0.500;2022-07-29T05:57:52;101602.83;;;17.98;69.04
49463;BME280;35357;51.722;0.500;2022-07-29T06:00:19;101600.79;;;17.89;69.37
49463;BME280;35357;51.722;0.500;2022-07-29T06:02:46;101600.58;;;17.82;70.03
49463;BME280;35357;51.722;0.500;2022-07-29T06:05:13;101601.24;;;18.31;68.84
49463;BME280;35357;51.722;0.500;2022-07-29T06:07:40;101605.38;;;17.90;69.74
49463;BME280;35357;51.722;0.500;2022-07-29T06:10:08;101608.65;;;17.68;70.58
49463;BME280;35357;51.722;0.500;2022-07-29T06:12:35;101608.62;;;17.17;73.11
49463;BME280;35357;51.722;0.500;2022-07-29T06:15:03;101611.76;;;17.01;73.84
49463;BME280;35357;51.722;0.500;2022-07-29T06:17:31;101612.49;;;17.25;73.55
49463;BME280;35357;51.722;0.500;2022-07-29T06:19:58;101619.08;;;17.28;75.30
49463;BME280;35357;51.722;0.500;2022-07-29T06:22:26;101626.26;;;17.77;73.70
49463;BME280;35357;51.722;0.500;2022-07-29T06:24:53;101629.39;;;17.47;72.96
49463;BME280;35357;51.722;0.500;2022-07-29T06:27:21;101632.36;;;17.75;72.03
49463;BME280;35357;51.722;0.500;2022-07-29T06:29:49;101632.37;;;17.60;72.55
49463;BME280;35357;51.722;0.500;2022-07-29T06:32:16;101633.05;;;18.04;71.71
49463;BME280;35357;51.722;0.500;2022-07-29T06:34:43;101634.14;;;17.61;73.67
49463;BME280;35357;51.722;0.500;2022-07-29T06:37:10;101629.86;;;17.12;74.94
49463;BME280;35357;51.722;0.500;2022-07-29T06:39:38;101629.14;;;17.17;75.04
49463;BME280;35357;51.722;0.500;2022-07-29T06:42:05;101628.96;;;17.83;74.05
49463;BME280;35357;51.722;0.500;2022-07-29T06:44:33;101640.64;;;16.91;77.75
49463;BME280;35357;51.722;0.500;2022-07-29T06:47:01;101634.22;;;17.56;75.33
49463;BME280;35357;51.722;0.500;2022-07-29T06:49:29;101637.20;;;16.35;77.52
49463;BME280;35357;51.722;0.500;2022-07-29T06:51:56;101631.28;;;17.53;75.97
49463;BME280;35357;51.722;0.500;2022-07-29T06:54:24;101632.87;;;17.32;76.96
49463;BME280;35357;51.722;0.500;2022-07-29T06:56:51;101627.78;;;18.10;74.64
49463;BME280;35357;51.722;0.500;2022-07-29T06:59:18;101627.45;;;17.63;74.69
49463;BME280;35357;51.722;0.500;2022-07-29T07:01:45;101630.85;;;18.15;72.52
49463;BME280;35357;51.722;0.500;2022-07-29T07:04:13;101627.44;;;17.72;74.35
49463;BME280;35357;51.722;0.500;2022-07-29T07:06:40;101629.25;;;17.92;73.68
49463;BME280;35357;51.722;0.500;2022-07-29T07:09:08;101635.35;;;18.28;71.38
49463;BME280;35357;51.722;0.500;2022-07-29T07:11:35;101636.26;;;18.49;70.96
49463;BME280;35357;51.722;0.500;2022-07-29T07:14:03;101636.05;;;18.00;71.78
49463;BME280;35357;51.722;0.500;2022-07-29T07:16:30;101638.24;;;18.19;72.24
49463;BME280;35357;51.722;0.500;2022-07-29T07:18:57;101637.36;;;19.21;69.43
49463;BME280;35357;51.722;0.500;2022-07-29T07:21:24;101638.56;;;18.01;71.51
49463;BME280;35357;51.722;0.500;2022-07-29T07:23:52;101643.31;;;19.04;69.64
49463;BME280;35357;51.722;0.500;2022-07-29T07:26:19;101640.75;;;18.77;69.94
49463;BME280;35357;51.722;0.500;2022-07-29T07:28:47;101640.21;;;17.89;72.27
49463;BME280;35357;51.722;0.500;2022-07-29T07:31:13;101639.62;;;18.14;72.30
49463;BME280;35357;51.722;0.500;2022-07-29T07:33:40;101639.36;;;18.55;70.47
49463;BME280;35357;51.722;0.500;2022-07-29T07:36:08;101640.48;;;19.07;68.71
49463;BME280;35357;51.722;0.500;2022-07-29T07:38:35;101639.60;;;18.42;70.53
49463;BME280;35357;51.722;0.500;2022-07-29T07:41:03;101635.68;;;18.75;69.58
49463;BME280;35357;51.722;0.500;2022-07-29T07:43:31;101634.43;;;19.25;67.74
49463;BME280;35357;51.722;0.500;2022-07-29T07:45:58;101636.68;;;19.40;65.81
49463;BME280;35357;51.722;0.500;2022-07-29T07:48:26;101632.38;;;20.07;64.42
49463;BME280;35357;51.722;0.500;2022-07-29T07:50:54;101630.36;;;19.70;63.96
49463;BME280;35357;51.722;0.500;2022-07-29T07:53:21;101632.34;;;20.06;62.91
49463;BME280;35357;51.722;0.500;2022-07-29T07:55:49;101630.38;;;20.15;62.28
49463;BME280;35357;51.722;0.500;2022-07-29T07:58:17;101636.92;;;19.13;64.17
49463;BME280;35357;51.722;0.500;2022-07-29T08:00:44;101634.93;;;19.64;62.65
49463;BME280;35357;51.722;0.500;2022-07-29T08:03:12;101637.10;;;19.53;62.08
49463;BME280;35357;51.722;0.500;2022-07-29T08:05:39;101639.58;;;19.78;62.28
49463;BME280;35357;51.722;0.500;2022-07-29T08:08:07;101638.18;;;20.31;59.78
49463;BME280;35357;51.722;0.500;2022-07-29T08:10:35;101640.58;;;20.44;57.27
49463;BME280;35357;51.722;0.500;2022-07-29T08:13:03;101640.57;;;20.03;56.28
49463;BME280;35357;51.722;0.500;2022-07-29T08:15:30;101650.81;;;20.57;57.26
49463;BME280;35357;51.722;0.500;2022-07-29T08:17:58;101649.53;;;19.78;56.59
49463;BME280;35357;51.722;0.500;2022-07-29T08:20:25;101653.31;;;20.95;52.79
49463;BME280;35357;51.722;0.500;2022-07-29T08:22:54;101656.47;;;20.87;53.78
49463;BME280;35357;51.722;0.500;2022-07-29T08:25:21;101655.04;;;20.28;55.00
49463;BME280;35357;51.722;0.500;2022-07-29T08:27:49;101652.38;;;20.52;53.36
49463;BME280;35357;51.722;0.500;2022-07-29T08:30:16;101651.08;;;21.10;52.50
49463;BME280;35357;51.722;0.500;2022-07-29T08:32:43;101651.75;;;20.63;51.86
49463;BME280;35357;51.722;0.500;2022-07-29T08:35:11;101652.14;;;20.26;49.64
49463;BME280;35357;51.722;0.500;2022-07-29T08:37:38;101652.54;;;21.45;49.11
49463;BME280;35357;51.722;0.500;2022-07-29T08:40:07;101650.41;;;21.14;48.77
49463;BME280;35357;51.722;0.500;2022-07-29T08:42:34;101647.38;;;19.94;50.83
49463;BME280;35357;51.722;0.500;2022-07-29T08:45:03;101643.96;;;20.62;51.05
49463;BME280;35357;51.722;0.500;2022-07-29T08:47:31;101646.61;;;20.71;49.18
49463;BME280;35357;51.722;0.500;2022-07-29T08:49:58;101643.01;;;21.93;47.68
49463;BME280;35357;51.722;0.500;2022-07-29T08:52:26;101652.31;;;20.32;48.88
49463;BME280;35357;51.722;0.500;2022-07-29T08:54:55;101646.87;;;20.53;48.67
49463;BME280;35357;51.722;0.500;2022-07-29T08:57:23;101651.54;;;20.99;46.49
49463;BME280;35357;51.722;0.500;2022-07-29T08:59:52;101653.75;;;20.97;48.06
49463;BME280;35357;51.722;0.500;2022-07-29T09:02:22;101653.46;;;21.22;47.12
49463;BME280;35357;51.722;0.500;2022-07-29T09:04:49;101654.17;;;21.25;46.71
49463;BME280;35357;51.722;0.500;2022-07-29T09:07:18;101656.54;;;20.43;47.59
49463;BME280;35357;51.722;0.500;2022-07-29T09:09:46;101657.49;;;21.52;45.67
49463;BME280;35357;51.722;0.500;2022-07-29T09:12:14;101651.15;;;21.78;44.85
49463;BME280;35357;51.722;0.500;2022-07-29T09:14:40;101656.52;;;21.00;46.45
49463;BME280;35357;51.722;0.500;2022-07-29T09:17:08;101650.75;;;22.06;44.14
49463;BME280;35357;51.722;0.500;2022-07-29T09:19:37;101650.57;;;22.29;43.66
49463;BME280;35357;51.722;0.500;2022-07-29T09:22:05;101654.24;;;22.12;43.68
49463;BME280;35357;51.722;0.500;2022-07-29T09:24:39;101650.49;;;22.08;42.90
49463;BME280;35357;51.722;0.500;2022-07-29T09:27:19;101654.27;;;21.20;45.21
49463;BME280;35357;51.722;0.500;2022-07-29T09:29:48;101650.75;;;20.96;44.38
49463;BME280;35357;51.722;0.500;2022-07-29T09:32:22;101647.14;;;22.20;42.30
49463;BME280;35357;51.722;0.500;2022-07-29T09:34:50;101645.71;;;22.11;43.77
49463;BME280;35357;51.722;0.500;2022-07-29T09:37:26;101640.49;;;22.18;42.22
49463;BME280;35357;51.722;0.500;2022-07-29T09:39:55;101645.20;;;21.53;42.88
49463;BME280;35357;51.722;0.500;2022-07-29T09:42:28;101644.76;;;21.68;42.35
49463;BME280;35357;51.722;0.500;2022-07-29T09:44:56;101649.71;;;21.42;43.00
49463;BME280;35357;51.722;0.500;2022-07-29T09:47:41;101644.53;;;22.98;41.52
49463;BME280;35357;51.722;0.500;2022-07-29T09:50:08;101640.97;;;22.31;41.17
49463;BME280;35357;51.722;0.500;2022-07-29T09:52:45;101645.71;;;22.13;39.79
49463;BME280;35357;51.722;0.500;2022-07-29T09:55:13;101652.26;;;21.79;40.89
49463;BME280;35357;51.722;0.500;2022-07-29T09:57:40;101648.54;;;21.83;41.88
49463;BME280;35357;51.722;0.500;2022-07-29T10:00:10;101644.16;;;22.41;40.14
49463;BME280;35357;51.722;0.500;2022-07-29T10:02:39;101640.07;;;22.22;40.02
49463;BME280;35357;51.722;0.500;2022-07-29T10:05:19;101633.93;;;22.78;38.98
49463;BME280;35357;51.722;0.500;2022-07-29T10:07:48;101633.39;;;23.32;37.21
49463;BME280;35357;51.722;0.500;2022-07-29T10:10:21;101633.14;;;22.84;37.80
49463;BME280;35357;51.722;0.500;2022-07-29T10:12:52;101629.45;;;22.01;39.72
49463;BME280;35357;51.722;0.500;2022-07-29T10:15:22;101632.87;;;22.73;39.59
49463;BME280;35357;51.722;0.500;2022-07-29T10:17:50;101630.04;;;22.94;38.32
49463;BME280;35357;51.722;0.500;2022-07-29T10:20:18;101626.52;;;23.89;37.24
49463;BME280;35357;51.722;0.500;2022-07-29T10:22:45;101630.43;;;23.30;37.03
49463;BME280;35357;51.722;0.500;2022-07-29T10:25:14;101632.07;;;22.93;33.41
49463;BME280;35357;51.722;0.500;2022-07-29T10:27:42;101632.86;;;22.74;35.80
49463;BME280;35357;51.722;0.500;2022-07-29T10:30:11;101636.86;;;22.11;37.46
49463;BME280;35357;51.722;0.500;2022-07-29T10:32:51;101637.00;;;22.69;36.91
49463;BME280;35357;51.722;0.500;2022-07-29T10:35:32;101641.16;;;22.65;36.80
49463;BME280;35357;51.722;0.500;2022-07-29T10:38:51;101640.79;;;22.49;37.33
49463;BME280;35357;51.722;0.500;2022-07-29T10:41:36;101643.31;;;22.67;35.73
49463;BME280;35357;51.722;0.500;2022-07-29T10:44:13;101638.57;;;23.55;34.33
49463;BME280;35357;51.722;0.500;2022-07-29T10:46:41;101636.84;;;24.17;34.48
49463;BME280;35357;51.722;0.500;2022-07-29T10:49:11;101635.11;;;23.51;34.89
49463;BME280;35357;51.722;0.500;2022-07-29T10:52:10;101632.21;;;23.05;35.75
49463;BME280;35357;51.722;0.500;2022-07-29T10:54:47;101629.19;;;21.62;36.69
49463;BME280;35357;51.722;0.500;2022-07-29T10:57:17;101624.13;;;22.83;34.78
49463;BME280;35357;51.722;0.500;2022-07-29T10:59:46;101625.76;;;23.29;33.72
49463;BME280;35357;51.722;0.500;2022-07-29T11:02:46;101622.85;;;22.92;33.37
49463;BME280;35357;51.722;0.500;2022-07-29T11:05:14;101623.47;;;24.23;32.64
49463;BME280;35357;51.722;0.500;2022-07-29T11:08:16;101628.92;;;22.82;34.36
49463;BME280;35357;51.722;0.500;2022-07-29T11:10:44;101622.60;;;23.99;32.46
49463;BME280;35357;51.722;0.500;2022-07-29T11:13:11;101624.96;;;23.83;32.38
49463;BME280;35357;51.722;0.500;2022-07-29T11:15:53;101627.89;;;23.87;32.83
49463;BME280;35357;51.722;0.500;2022-07-29T11:18:20;101624.27;;;24.14;33.42
49463;BME280;35357;51.722;0.500;2022-07-29T11:20:49;101628.23;;;24.24;32.91
49463;BME280;35357;51.722;0.500;2022-07-29T11:23:21;101626.86;;;24.56;32.42
49463;BME280;35357;51.722;0.500;2022-07-29T11:26:14;101627.46;;;24.49;31.89
49463;BME280;35357;51.722;0.500;2022-07-29T11:28:51;101626.28;;;24.20;31.96
49463;BME280;35357;51.722;0.500;2022-07-29T11:31:32;101627.43;;;24.45;31.99
49463;BME280;35357;51.722;0.500;2022-07-29T11:34:17;101627.06;;;24.78;31.66
49463;BME280;35357;51.722;0.500;2022-07-29T11:37:19;101628.19;;;24.02;31.46
49463;BME280;35357;51.722;0.500;2022-07-29T11:40:08;101625.02;;;24.03;32.13
49463;BME280;35357;51.722;0.500;2022-07-29T11:42:40;101629.48;;;23.44;33.15
49463;BME280;35357;51.722;0.500;2022-07-29T11:45:09;101623.54;;;22.78;33.69
49463;BME280;35357;51.722;0.500;2022-07-29T11:47:38;101622.01;;;23.61;32.41
49463;BME280;35357;51.722;0.500;2022-07-29T11:50:08;101623.75;;;24.00;32.04
49463;BME280;35357;51.722;0.500;2022-07-29T11:52:37;101620.54;;;24.63;32.09
49463;BME280;35357;51.722;0.500;2022-07-29T11:55:06;101619.94;;;24.69;31.64
49463;BME280;35357;51.722;0.500;2022-07-29T11:57:35;101624.87;;;24.76;31.28
49463;BME280;35357;51.722;0.500;2022-07-29T12:00:05;101622.30;;;24.95;29.78
49463;BME280;35357;51.722;0.500;2022-07-29T12:02:42;101616.31;;;24.20;31.51
49463;BME280;35357;51.722;0.500;2022-07-29T12:05:10;101615.65;;;25.47;31.11
49463;BME280;35357;51.722;0.500;2022-07-29T12:07:38;101616.09;;;25.08;30.72
49463;BME280;35357;51.722;0.500;2022-07-29T12:10:06;101617.15;;;24.79;31.72
49463;BME280;35357;51.722;0.500;2022-07-29T12:12:35;101615.33;;;24.71;31.50
49463;BME280;35357;51.722;0.500;2022-07-29T12:15:18;101620.22;;;25.39;30.73
49463;BME280;35357;51.722;0.500;2022-07-29T12:17:47;101622.25;;;24.47;31.07
49463;BME280;35357;51.722;0.500;2022-07-29T12:20:22;101622.45;;;25.51;29.45
49463;BME280;35357;51.722;0.500;2022-07-29T12:22:50;101616.59;;;24.96;31.00
49463;BME280;35357;51.722;0.500;2022-07-29T12:25:17;101614.31;;;25.25;29.89
49463;BME280;35357;51.722;0.500;2022-07-29T12:27:45;101614.80;;;25.12;30.06
49463;BME280;35357;51.722;0.500;2022-07-29T12:30:15;101611.59;;;24.96;30.96
49463;BME280;35357;51.722;0.500;2022-07-29T12:32:45;101611.37;;;25.08;30.44
49463;BME280;35357;51.722;0.500;2022-07-29T12:35:15;101611.61;;;24.21;30.73
49463;BME280;35357;51.722;0.500;2022-07-29T12:37:45;101612.44;;;25.42;29.70
49463;BME280;35357;51.722;0.500;2022-07-29T12:40:14;101609.81;;;25.42;29.57
49463;BME280;35357;51.722;0.500;2022-07-29T12:42:42;101610.50;;;24.81;30.02
49463;BME280;35357;51.722;0.500;2022-07-29T12:45:32;101609.13;;;23.84;31.24
49463;BME280;35357;51.722;0.500;2022-07-29T12:48:00;101606.93;;;24.90;30.04
49463;BME280;35357;51.722;0.500;2022-07-29T12:50:27;101603.19;;;23.77;31.57
49463;BME280;35357;51.722;0.500;2022-07-29T12:53:03;101604.69;;;24.22;30.88
49463;BME280;35357;51.722;0.500;2022-07-29T12:55:43;101601.99;;;24.22;30.40
49463;BME280;35357;51.722;0.500;2022-07-29T12:58:11;101604.89;;;24.45;30.12
49463;BME280;35357;51.722;0.500;2022-07-29T13:00:39;101606.21;;;25.22;29.24
49463;BME280;35357;51.722;0.500;2022-07-29T13:03:06;101607.09;;;24.51;29.42
49463;BME280;35357;51.722;0.500;2022-07-29T13:05:43;101605.79;;;25.92;28.54